sensor_id;sensor_type;location;lat;lon;timestamp;temperature;humidity
5899;DHT22;2975;50.956;6.962;2023-03-14T00:01:19;11.60;99.90
5899;DHT22;2975;50.956;6.962;2023-03-14T00:03:46;11.70;99.90
5899;DHT22;2975;50.956;6.962;2023-03-14T00:06:12;11.60;99.90
5899;DHT22;2975;50.956;6.962;2023-03-14T00:08:39;11.40;99.90
5899;DHT22;2975;50.956;6.962;2023-03-14T00:11:10;11.40;99.90
5899;DHT22;2975;50.956;6.962;2023-03-14T00:13:36;11.40;99.90
5899;DHT22;2975;50.956;6.962;2023-03-14T00:16:07;11.20;99.90
5899;DHT22;2975;50.956;6.962;2023-03-14T00:18:33;11.10;99.90
5899;DHT22;2975;50.956;6.962;2023-03-14T00:21:00;11.10;99.90
5899;DHT22;2975;50.956;6.962;2023-03-14T00:23:28;11.10;99.90
5899;DHT22;2975;50.956;6.962;2023-03-14T00:25:54;11.10;99.90
5899;DHT22;2975;50.956;6.962;2023-03-14T00:28:23;11.10;99.90
5899;DHT22;2975;50.956;6.962;2023-03-14T00:30:49;11.00;99.90
5899;DHT22;2975;50.956;6.962;2023-03-14T00:33:14;11.00;99.90
5899;DHT22;2975;50.956;6.962;2023-03-14T00:35:40;11.10;99.90
5899;DHT22;2975;50.956;6.962;2023-03-14T00:38:05;11.20;99.90
5899;DHT22;2975;50.956;6.962;2023-03-14T00:40:31;11.30;99.90
5899;DHT22;2975;50.956;6.962;2023-03-14T00:42:56;11.40;99.90
5899;DHT22;2975;50.956;6.962;2023-03-14T00:45:22;11.40;99.90
5899;DHT22;2975;50.956;6.962;2023-03-14T00:47:48;11.50;99.90
5899;DHT22;2975;50.956;6.962;2023-03-14T00:50:13;11.70;99.90
5899;DHT22;2975;50.956;6.962;2023-03-14T00:52:39;11.70;99.90
5899;DHT22;2975;50.956;6.962;2023-03-14T00:55:05;11.80;99.90
5899;DHT22;2975;50.956;6.962;2023-03-14T00:57:30;11.80;99.90
5899;DHT22;2975;50.956;6.962;2023-03-14T00:59:56;11.80;99.90
5899;DHT22;2975;50.956;6.962;2023-03-14T01:02:22;11.90;99.90
5899;DHT22;2975;50.956;6.962;2023-03-14T01:04:48;11.90;99.90
5899;DHT22;2975;50.956;6.962;2023-03-14T01:07:15;12.00;99.90
5899;DHT22;2975;50.956;6.962;2023-03-14T01:09:40;12.00;99.90
5899;DHT22;2975;50.956;6.962;2023-03-14T01:12:06;12.00;99.90
5899;DHT22;2975;50.956;6.962;2023-03-14T01:14:31;12.10;99.90
5899;DHT22;2975;50.956;6.962;2023-03-14T01:16:57;12.10;99.90
5899;DHT22;2975;50.956;6.962;2023-03-14T01:19:27;12.10;99.90
5899;DHT22;2975;50.956;6.962;2023-03-14T01:21:53;12.10;99.90
5899;DHT22;2975;50.956;6.962;2023-03-14T01:24:18;12.10;99.90
5899;DHT22;2975;50.956;6.962;2023-03-14T01:26:44;11.90;99.90
5899;DHT22;2975;50.956;6.962;2023-03-14T01:29:09;11.60;99.90
5899;DHT22;2975;50.956;6.962;2023-03-14T01:31:35;11.40;99.90
5899;DHT22;2975;50.956;6.962;2023-03-14T01:34:01;11.20;99.90
5899;DHT22;2975;50.956;6.962;2023-03-14T01:36:27;11.10;99.90
5899;DHT22;2975;50.956;6.962;2023-03-14T01:38:52;11.00;99.90
5899;DHT22;2975;50.956;6.962;2023-03-14T01:41:21;10.90;99.90
5899;DHT22;2975;50.956;6.962;2023-03-14T01:43:48;10.80;99.90
5899;DHT22;2975;50.956;6.962;2023-03-14T01:51:38;10.70;99.90
5899;DHT22;2975;50.956;6.962;2023-03-14T01:54:10;10.70;99.90
5899;DHT22;2975;50.956;6.962;2023-03-14T01:56:38;10.70;99.90
5899;DHT22;2975;50.956;6.962;2023-03-14T01:59:07;10.70;99.90
5899;DHT22;2975;50.956;6.962;2023-03-14T02:01:34;10.70;99.90
5899;DHT22;2975;50.956;6.962;2023-03-14T02:04:03;10.70;99.90
5899;DHT22;2975;50.956;6.962;2023-03-14T02:07:07;10.60;99.90
5899;DHT22;2975;50.956;6.962;2023-03-14T02:09:36;10.60;99.90
5899;DHT22;2975;50.956;6.962;2023-03-14T02:12:04;10.50;99.90
5899;DHT22;2975;50.956;6.962;2023-03-14T02:14:33;10.40;99.90
5899;DHT22;2975;50.956;6.962;2023-03-14T02:17:01;10.30;99.90
5899;DHT22;2975;50.956;6.962;2023-03-14T02:19:38;10.30;99.90
5899;DHT22;2975;50.956;6.962;2023-03-14T02:22:11;10.30;99.90
5899;DHT22;2975;50.956;6.962;2023-03-14T02:27:14;10.30;99.90
5899;DHT22;2975;50.956;6.962;2023-03-14T02:29:52;10.30;99.90
5899;DHT22;2975;50.956;6.962;2023-03-14T02:32:20;10.30;99.90
5899;DHT22;2975;50.956;6.962;2023-03-14T02:34:51;10.30;99.90
5899;DHT22;2975;50.956;6.962;2023-03-14T02:37:19;10.30;99.90
5899;DHT22;2975;50.956;6.962;2023-03-14T02:39:46;10.30;99.90
5899;DHT22;2975;50.956;6.962;2023-03-14T02:42:13;10.30;99.90
5899;DHT22;2975;50.956;6.962;2023-03-14T02:45:00;10.30;99.90
5899;DHT22;2975;50.956;6.962;2023-03-14T02:47:28;10.40;99.90
5899;DHT22;2975;50.956;6.962;2023-03-14T02:50:04;10.40;99.90
5899;DHT22;2975;50.956;6.962;2023-03-14T02:52:30;10.30;99.90
5899;DHT22;2975;50.956;6.962;2023-03-14T02:54:56;10.20;99.90
5899;DHT22;2975;50.956;6.962;2023-03-14T02:57:21;10.00;99.90
5899;DHT22;2975;50.956;6.962;2023-03-14T02:59:47;10.00;99.90
5899;DHT22;2975;50.956;6.962;2023-03-14T03:02:12;10.10;99.90
5899;DHT22;2975;50.956;6.962;2023-03-14T03:04:38;10.20;99.90
5899;DHT22;2975;50.956;6.962;2023-03-14T03:07:04;10.20;99.90
5899;DHT22;2975;50.956;6.962;2023-03-14T03:09:29;10.30;99.90
5899;DHT22;2975;50.956;6.962;2023-03-14T03:11:55;10.40;99.90
5899;DHT22;2975;50.956;6.962;2023-03-14T03:14:20;10.40;99.90
5899;DHT22;2975;50.956;6.962;2023-03-14T03:16:46;10.40;99.90
5899;DHT22;2975;50.956;6.962;2023-03-14T03:19:12;10.40;99.90
5899;DHT22;2975;50.956;6.962;2023-03-14T03:21:39;10.40;99.90
5899;DHT22;2975;50.956;6.962;2023-03-14T03:24:05;10.40;99.90
5899;DHT22;2975;50.956;6.962;2023-03-14T03:26:30;10.40;99.90
5899;DHT22;2975;50.956;6.962;2023-03-14T03:28:56;10.40;99.90
5899;DHT22;2975;50.956;6.962;2023-03-14T03:31:21;10.40;99.90
5899;DHT22;2975;50.956;6.962;2023-03-14T03:33:47;10.40;99.90
5899;DHT22;2975;50.956;6.962;2023-03-14T03:36:13;10.50;99.90
5899;DHT22;2975;50.956;6.962;2023-03-14T03:38:38;10.40;99.90
5899;DHT22;2975;50.956;6.962;2023-03-14T03:41:07;10.40;99.90
5899;DHT22;2975;50.956;6.962;2023-03-14T03:43:33;10.40;99.90
5899;DHT22;2975;50.956;6.962;2023-03-14T03:46:02;10.30;99.90
5899;DHT22;2975;50.956;6.962;2023-03-14T03:48:28;10.30;99.90
5899;DHT22;2975;50.956;6.962;2023-03-14T03:50:54;10.30;99.90
5899;DHT22;2975;50.956;6.962;2023-03-14T03:53:19;10.20;99.90
5899;DHT22;2975;50.956;6.962;2023-03-14T03:55:45;10.20;99.90
5899;DHT22;2975;50.956;6.962;2023-03-14T03:58:10;10.20;99.90
5899;DHT22;2975;50.956;6.962;2023-03-14T04:00:36;10.20;99.90
5899;DHT22;2975;50.956;6.962;2023-03-14T04:03:04;10.30;99.90
5899;DHT22;2975;50.956;6.962;2023-03-14T04:05:30;10.30;99.90
5899;DHT22;2975;50.956;6.962;2023-03-14T04:07:56;10.40;99.90
5899;DHT22;2975;50.956;6.962;2023-03-14T04:10:22;10.40;99.90
5899;DHT22;2975;50.956;6.962;2023-03-14T04:12:47;10.50;99.90
5899;DHT22;2975;50.956;6.962;2023-03-14T04:15:13;10.60;99.90
5899;DHT22;2975;50.956;6.962;2023-03-14T04:17:39;10.60;99.90
5899;DHT22;2975;50.956;6.962;2023-03-14T04:20:05;10.70;99.90
5899;DHT22;2975;50.956;6.962;2023-03-14T04:22:36;10.70;99.90
5899;DHT22;2975;50.956;6.962;2023-03-14T04:25:01;10.70;99.90
5899;DHT22;2975;50.956;6.962;2023-03-14T04:27:28;10.70;99.90
5899;DHT22;2975;50.956;6.962;2023-03-14T04:29:54;10.70;99.90
5899;DHT22;2975;50.956;6.962;2023-03-14T04:32:20;10.70;99.90
5899;DHT22;2975;50.956;6.962;2023-03-14T04:34:45;10.60;99.90
5899;DHT22;2975;50.956;6.962;2023-03-14T04:37:11;10.60;99.90
5899;DHT22;2975;50.956;6.962;2023-03-14T04:39:37;10.50;99.90
5899;DHT22;2975;50.956;6.962;2023-03-14T04:42:02;10.50;99.90
5899;DHT22;2975;50.956;6.962;2023-03-14T04:44:28;10.50;99.90
5899;DHT22;2975;50.956;6.962;2023-03-14T04:46:54;10.60;99.90
5899;DHT22;2975;50.956;6.962;2023-03-14T04:49:19;10.60;99.90
5899;DHT22;2975;50.956;6.962;2023-03-14T04:51:45;10.50;99.90
5899;DHT22;2975;50.956;6.962;2023-03-14T04:54:11;10.50;99.90
5899;DHT22;2975;50.956;6.962;2023-03-14T04:56:36;10.50;99.90
5899;DHT22;2975;50.956;6.962;2023-03-14T04:59:03;10.50;99.90
5899;DHT22;2975;50.956;6.962;2023-03-14T05:01:28;10.50;99.90
5899;DHT22;2975;50.956;6.962;2023-03-14T05:03:54;10.50;99.90
5899;DHT22;2975;50.956;6.962;2023-03-14T05:06:19;10.60;99.90
5899;DHT22;2975;50.956;6.962;2023-03-14T05:08:46;10.50;99.90
5899;DHT22;2975;50.956;6.962;2023-03-14T05:11:11;10.50;99.90
5899;DHT22;2975;50.956;6.962;2023-03-14T05:13:38;10.50;99.90
5899;DHT22;2975;50.956;6.962;2023-03-14T05:16:08;10.50;99.90
5899;DHT22;2975;50.956;6.962;2023-03-14T05:18:34;10.50;99.90
5899;DHT22;2975;50.956;6.962;2023-03-14T05:21:00;10.40;99.90
5899;DHT22;2975;50.956;6.962;2023-03-14T05:23:26;10.50;99.90
5899;DHT22;2975;50.956;6.962;2023-03-14T05:25:53;10.40;99.90
5899;DHT22;2975;50.956;6.962;2023-03-14T05:28:18;10.40;99.90
5899;DHT22;2975;50.956;6.962;2023-03-14T05:30:44;10.50;99.90
5899;DHT22;2975;50.956;6.962;2023-03-14T05:33:10;10.40;99.90
5899;DHT22;2975;50.956;6.962;2023-03-14T05:35:35;10.50;99.90
5899;DHT22;2975;50.956;6.962;2023-03-14T05:38:01;10.40;99.90
5899;DHT22;2975;50.956;6.962;2023-03-14T05:40:27;10.50;99.90
5899;DHT22;2975;50.956;6.962;2023-03-14T05:42:52;10.50;99.90
5899;DHT22;2975;50.956;6.962;2023-03-14T05:45:18;10.50;99.90
5899;DHT22;2975;50.956;6.962;2023-03-14T05:47:43;10.40;99.90
5899;DHT22;2975;50.956;6.962;2023-03-14T05:50:10;10.50;99.90
5899;DHT22;2975;50.956;6.962;2023-03-14T05:52:36;10.50;99.90
5899;DHT22;2975;50.956;6.962;2023-03-14T05:55:02;10.60;99.90
5899;DHT22;2975;50.956;6.962;2023-03-14T05:57:27;10.60;99.90
5899;DHT22;2975;50.956;6.962;2023-03-14T05:59:53;10.60;99.90
5899;DHT22;2975;50.956;6.962;2023-03-14T06:02:19;10.60;99.90
5899;DHT22;2975;50.956;6.962;2023-03-14T06:04:44;10.60;99.90
5899;DHT22;2975;50.956;6.962;2023-03-14T06:07:10;10.60;99.90
5899;DHT22;2975;50.956;6.962;2023-03-14T06:09:35;10.60;99.90
5899;DHT22;2975;50.956;6.962;2023-03-14T06:12:01;10.70;99.90
5899;DHT22;2975;50.956;6.962;2023-03-14T06:14:26;10.70;99.90
5899;DHT22;2975;50.956;6.962;2023-03-14T06:16:52;10.70;99.90
5899;DHT22;2975;50.956;6.962;2023-03-14T06:19:18;10.70;99.90
5899;DHT22;2975;50.956;6.962;2023-03-14T06:21:44;10.70;99.90
5899;DHT22;2975;50.956;6.962;2023-03-14T06:24:09;10.70;99.90
5899;DHT22;2975;50.956;6.962;2023-03-14T06:26:35;10.70;99.90
5899;DHT22;2975;50.956;6.962;2023-03-14T06:29:00;10.70;99.90
5899;DHT22;2975;50.956;6.962;2023-03-14T06:31:32;10.70;99.90
5899;DHT22;2975;50.956;6.962;2023-03-14T06:33:58;10.70;99.90
5899;DHT22;2975;50.956;6.962;2023-03-14T06:36:23;10.70;99.90
5899;DHT22;2975;50.956;6.962;2023-03-14T06:38:49;10.80;99.90
5899;DHT22;2975;50.956;6.962;2023-03-14T06:41:15;10.90;99.90
5899;DHT22;2975;50.956;6.962;2023-03-14T06:43:40;11.00;99.90
5899;DHT22;2975;50.956;6.962;2023-03-14T06:46:06;11.10;99.90
5899;DHT22;2975;50.956;6.962;2023-03-14T06:48:32;11.10;99.90
5899;DHT22;2975;50.956;6.962;2023-03-14T06:50:57;11.20;99.90
5899;DHT22;2975;50.956;6.962;2023-03-14T06:53:23;11.30;99.90
5899;DHT22;2975;50.956;6.962;2023-03-14T06:55:49;11.40;99.90
5899;DHT22;2975;50.956;6.962;2023-03-14T06:58:14;11.50;99.90
5899;DHT22;2975;50.956;6.962;2023-03-14T07:00:40;11.70;99.90
5899;DHT22;2975;50.956;6.962;2023-03-14T07:03:05;11.60;99.90
5899;DHT22;2975;50.956;6.962;2023-03-14T07:05:31;11.60;99.90
5899;DHT22;2975;50.956;6.962;2023-03-14T07:07:57;11.60;99.90
5899;DHT22;2975;50.956;6.962;2023-03-14T07:10:23;11.70;99.90
5899;DHT22;2975;50.956;6.962;2023-03-14T07:12:48;11.60;99.90
5899;DHT22;2975;50.956;6.962;2023-03-14T07:15:14;11.70;99.90
5899;DHT22;2975;50.956;6.962;2023-03-14T07:17:40;11.70;99.90
5899;DHT22;2975;50.956;6.962;2023-03-14T07:20:06;11.80;99.90
5899;DHT22;2975;50.956;6.962;2023-03-14T07:22:33;11.80;99.90
5899;DHT22;2975;50.956;6.962;2023-03-14T07:24:58;11.80;99.90
5899;DHT22;2975;50.956;6.962;2023-03-14T07:27:24;11.90;99.90
5899;DHT22;2975;50.956;6.962;2023-03-14T07:29:49;11.80;99.90
5899;DHT22;2975;50.956;6.962;2023-03-14T07:32:16;11.80;99.90
5899;DHT22;2975;50.956;6.962;2023-03-14T07:34:42;11.90;99.90
5899;DHT22;2975;50.956;6.962;2023-03-14T07:37:07;12.00;99.90
5899;DHT22;2975;50.956;6.962;2023-03-14T07:39:33;12.10;99.90
5899;DHT22;2975;50.956;6.962;2023-03-14T07:41:59;12.30;99.90
5899;DHT22;2975;50.956;6.962;2023-03-14T07:44:25;12.50;99.90
5899;DHT22;2975;50.956;6.962;2023-03-14T07:46:51;12.60;99.90
5899;DHT22;2975;50.956;6.962;2023-03-14T07:49:16;12.60;99.90
5899;DHT22;2975;50.956;6.962;2023-03-14T07:51:42;12.60;99.90
5899;DHT22;2975;50.956;6.962;2023-03-14T07:54:09;12.60;99.90
5899;DHT22;2975;50.956;6.962;2023-03-14T07:56:35;12.60;99.90
5899;DHT22;2975;50.956;6.962;2023-03-14T07:59:00;12.70;99.90
5899;DHT22;2975;50.956;6.962;2023-03-14T08:01:26;12.70;99.90
5899;DHT22;2975;50.956;6.962;2023-03-14T08:03:52;12.80;99.90
5899;DHT22;2975;50.956;6.962;2023-03-14T08:06:17;12.90;99.90
5899;DHT22;2975;50.956;6.962;2023-03-14T08:08:43;12.80;99.90
5899;DHT22;2975;50.956;6.962;2023-03-14T08:11:09;12.70;99.90
5899;DHT22;2975;50.956;6.962;2023-03-14T08:13:36;12.70;99.90
5899;DHT22;2975;50.956;6.962;2023-03-14T08:16:02;12.70;99.90
5899;DHT22;2975;50.956;6.962;2023-03-14T08:18:28;12.70;99.90
5899;DHT22;2975;50.956;6.962;2023-03-14T08:20:53;12.70;99.90
5899;DHT22;2975;50.956;6.962;2023-03-14T08:23:19;12.80;99.90
5899;DHT22;2975;50.956;6.962;2023-03-14T08:25:45;12.90;99.90
5899;DHT22;2975;50.956;6.962;2023-03-14T08:28:10;13.00;99.90
5899;DHT22;2975;50.956;6.962;2023-03-14T08:30:36;13.20;99.90
5899;DHT22;2975;50.956;6.962;2023-03-14T08:33:02;13.40;99.90
5899;DHT22;2975;50.956;6.962;2023-03-14T08:35:27;13.50;99.90
5899;DHT22;2975;50.956;6.962;2023-03-14T08:37:53;13.40;99.90
5899;DHT22;2975;50.956;6.962;2023-03-14T08:40:18;13.30;99.90
5899;DHT22;2975;50.956;6.962;2023-03-14T08:42:45;13.20;99.90
5899;DHT22;2975;50.956;6.962;2023-03-14T08:45:13;13.10;99.90
5899;DHT22;2975;50.956;6.962;2023-03-14T08:47:38;13.10;99.90
5899;DHT22;2975;50.956;6.962;2023-03-14T08:50:05;13.30;99.90
5899;DHT22;2975;50.956;6.962;2023-03-14T08:52:32;13.40;99.90
5899;DHT22;2975;50.956;6.962;2023-03-14T08:54:57;13.50;99.90
5899;DHT22;2975;50.956;6.962;2023-03-14T08:57:24;13.40;99.90
5899;DHT22;2975;50.956;6.962;2023-03-14T08:59:56;13.30;99.90
5899;DHT22;2975;50.956;6.962;2023-03-14T09:02:23;13.10;99.90
5899;DHT22;2975;50.956;6.962;2023-03-14T09:04:52;13.00;99.90
5899;DHT22;2975;50.956;6.962;2023-03-14T09:07:19;12.80;99.90
5899;DHT22;2975;50.956;6.962;2023-03-14T09:09:45;12.60;99.90
5899;DHT22;2975;50.956;6.962;2023-03-14T09:12:10;12.50;99.90
5899;DHT22;2975;50.956;6.962;2023-03-14T09:14:36;12.30;99.90
5899;DHT22;2975;50.956;6.962;2023-03-14T09:17:03;12.20;99.90
5899;DHT22;2975;50.956;6.962;2023-03-14T09:19:29;12.20;99.90
5899;DHT22;2975;50.956;6.962;2023-03-14T09:21:55;12.20;99.90
5899;DHT22;2975;50.956;6.962;2023-03-14T09:24:20;12.20;99.90
5899;DHT22;2975;50.956;6.962;2023-03-14T09:26:46;12.30;99.90
5899;DHT22;2975;50.956;6.962;2023-03-14T09:29:12;12.20;99.90
5899;DHT22;2975;50.956;6.962;2023-03-14T09:31:38;12.30;99.90
5899;DHT22;2975;50.956;6.962;2023-03-14T09:34:03;12.20;99.90
5899;DHT22;2975;50.956;6.962;2023-03-14T09:36:29;12.30;99.90
5899;DHT22;2975;50.956;6.962;2023-03-14T09:38:55;12.30;99.90
5899;DHT22;2975;50.956;6.962;2023-03-14T09:46:39;11.50;99.90
5899;DHT22;2975;50.956;6.962;2023-03-14T09:49:12;11.30;99.90
5899;DHT22;2975;50.956;6.962;2023-03-14T09:51:39;10.80;99.90
5899;DHT22;2975;50.956;6.962;2023-03-14T09:54:06;10.50;99.90
5899;DHT22;2975;50.956;6.962;2023-03-14T09:56:39;10.10;99.90
5899;DHT22;2975;50.956;6.962;2023-03-14T09:59:05;9.90;99.90
5899;DHT22;2975;50.956;6.962;2023-03-14T10:01:35;9.80;99.90
5899;DHT22;2975;50.956;6.962;2023-03-14T10:04:23;9.70;99.90
5899;DHT22;2975;50.956;6.962;2023-03-14T10:06:49;9.60;99.90
5899;DHT22;2975;50.956;6.962;2023-03-14T10:09:19;9.50;99.90
5899;DHT22;2975;50.956;6.962;2023-03-14T10:11:54;9.50;99.90
5899;DHT22;2975;50.956;6.962;2023-03-14T10:14:31;9.50;99.90
5899;DHT22;2975;50.956;6.962;2023-03-14T10:17:09;9.50;99.90
5899;DHT22;2975;50.956;6.962;2023-03-14T10:19:36;9.60;99.90
5899;DHT22;2975;50.956;6.962;2023-03-14T10:22:03;9.60;99.90
5899;DHT22;2975;50.956;6.962;2023-03-14T10:24:34;9.60;99.90
5899;DHT22;2975;50.956;6.962;2023-03-14T10:27:18;9.40;99.90
5899;DHT22;2975;50.956;6.962;2023-03-14T10:29:53;9.40;99.90
5899;DHT22;2975;50.956;6.962;2023-03-14T10:32:21;9.30;99.90
5899;DHT22;2975;50.956;6.962;2023-03-14T10:35:05;9.30;99.90
5899;DHT22;2975;50.956;6.962;2023-03-14T10:37:31;9.30;99.90
5899;DHT22;2975;50.956;6.962;2023-03-14T10:40:02;9.30;99.90
5899;DHT22;2975;50.956;6.962;2023-03-14T10:42:39;9.10;99.90
5899;DHT22;2975;50.956;6.962;2023-03-14T10:45:25;9.10;99.90
5899;DHT22;2975;50.956;6.962;2023-03-14T10:47:53;9.10;99.90
5899;DHT22;2975;50.956;6.962;2023-03-14T10:52:49;9.20;99.90
5899;DHT22;2975;50.956;6.962;2023-03-14T10:55:17;9.20;99.90
5899;DHT22;2975;50.956;6.962;2023-03-14T10:57:43;9.10;99.90
5899;DHT22;2975;50.956;6.962;2023-03-14T11:00:23;9.20;99.90
5899;DHT22;2975;50.956;6.962;2023-03-14T11:05:59;9.40;99.90
5899;DHT22;2975;50.956;6.962;2023-03-14T11:08:41;9.50;99.90
5899;DHT22;2975;50.956;6.962;2023-03-14T11:11:18;9.60;99.90
5899;DHT22;2975;50.956;6.962;2023-03-14T11:16:29;9.50;99.90
5899;DHT22;2975;50.956;6.962;2023-03-14T11:19:03;9.70;99.90
5899;DHT22;2975;50.956;6.962;2023-03-14T11:24:23;10.10;99.90
5899;DHT22;2975;50.956;6.962;2023-03-14T11:27:00;10.10;99.90
5899;DHT22;2975;50.956;6.962;2023-03-14T11:29:40;10.10;99.90
5899;DHT22;2975;50.956;6.962;2023-03-14T11:34:55;10.20;99.90
5899;DHT22;2975;50.956;6.962;2023-03-14T11:37:34;10.20;99.90
5899;DHT22;2975;50.956;6.962;2023-03-14T11:40:20;10.20;99.90
5899;DHT22;2975;50.956;6.962;2023-03-14T11:42:54;10.00;99.90
5899;DHT22;2975;50.956;6.962;2023-03-14T11:45:36;9.10;99.90
5899;DHT22;2975;50.956;6.962;2023-03-14T11:48:20;8.40;99.90
5899;DHT22;2975;50.956;6.962;2023-03-14T11:50:51;8.00;99.90
5899;DHT22;2975;50.956;6.962;2023-03-14T11:59:16;7.90;99.90
5899;DHT22;2975;50.956;6.962;2023-03-14T12:01:57;7.80;99.90
5899;DHT22;2975;50.956;6.962;2023-03-14T12:06:56;7.80;99.90
5899;DHT22;2975;50.956;6.962;2023-03-14T12:09:23;7.80;99.90
5899;DHT22;2975;50.956;6.962;2023-03-14T12:11:58;7.90;99.90
5899;DHT22;2975;50.956;6.962;2023-03-14T12:14:28;8.00;99.90
5899;DHT22;2975;50.956;6.962;2023-03-14T12:16:59;8.00;99.90
5899;DHT22;2975;50.956;6.962;2023-03-14T12:19:31;8.00;99.90
5899;DHT22;2975;50.956;6.962;2023-03-14T12:24:34;7.70;99.90
5899;DHT22;2975;50.956;6.962;2023-03-14T12:27:02;7.50;99.90
5899;DHT22;2975;50.956;6.962;2023-03-14T12:29:29;7.50;99.90
5899;DHT22;2975;50.956;6.962;2023-03-14T12:34:39;7.80;99.90
5899;DHT22;2975;50.956;6.962;2023-03-14T12:48:10;8.10;99.90
5899;DHT22;2975;50.956;6.962;2023-03-14T12:50:46;8.20;99.90
5899;DHT22;2975;50.956;6.962;2023-03-14T12:56:34;8.10;99.90
5899;DHT22;2975;50.956;6.962;2023-03-14T12:59:33;7.90;99.90
5899;DHT22;2975;50.956;6.962;2023-03-14T13:02:21;7.90;99.90
5899;DHT22;2975;50.956;6.962;2023-03-14T13:04:48;7.70;99.90
5899;DHT22;2975;50.956;6.962;2023-03-14T13:12:29;7.80;99.90
5899;DHT22;2975;50.956;6.962;2023-03-14T13:14:59;7.90;99.90
5899;DHT22;2975;50.956;6.962;2023-03-14T13:17:30;8.00;99.90
5899;DHT22;2975;50.956;6.962;2023-03-14T13:19:59;8.00;99.90
5899;DHT22;2975;50.956;6.962;2023-03-14T13:22:28;8.00;99.90
5899;DHT22;2975;50.956;6.962;2023-03-14T13:25:04;7.90;99.90
5899;DHT22;2975;50.956;6.962;2023-03-14T13:27:33;7.80;99.90
5899;DHT22;2975;50.956;6.962;2023-03-14T13:30:15;7.70;99.90
5899;DHT22;2975;50.956;6.962;2023-03-14T13:32:43;7.70;99.90
5899;DHT22;2975;50.956;6.962;2023-03-14T13:35:19;8.00;99.90
5899;DHT22;2975;50.956;6.962;2023-03-14T13:37:45;8.20;99.90
5899;DHT22;2975;50.956;6.962;2023-03-14T13:40:31;8.30;99.90
5899;DHT22;2975;50.956;6.962;2023-03-14T13:43:17;8.10;99.90
5899;DHT22;2975;50.956;6.962;2023-03-14T13:48:15;7.90;99.90
5899;DHT22;2975;50.956;6.962;2023-03-14T13:50:49;7.90;99.90
5899;DHT22;2975;50.956;6.962;2023-03-14T13:53:15;7.60;99.90
5899;DHT22;2975;50.956;6.962;2023-03-14T13:55:41;7.40;99.90
5899;DHT22;2975;50.956;6.962;2023-03-14T13:58:22;7.50;99.90
5899;DHT22;2975;50.956;6.962;2023-03-14T14:00:57;7.60;99.90
5899;DHT22;2975;50.956;6.962;2023-03-14T14:03:23;7.70;99.90
5899;DHT22;2975;50.956;6.962;2023-03-14T14:05:49;7.70;99.90
5899;DHT22;2975;50.956;6.962;2023-03-14T14:08:14;8.00;99.90
5899;DHT22;2975;50.956;6.962;2023-03-14T14:10:40;7.90;99.90
5899;DHT22;2975;50.956;6.962;2023-03-14T14:13:10;8.10;99.90
5899;DHT22;2975;50.956;6.962;2023-03-14T14:15:41;8.10;99.90
5899;DHT22;2975;50.956;6.962;2023-03-14T14:18:11;8.00;99.90
5899;DHT22;2975;50.956;6.962;2023-03-14T14:20:41;8.10;99.90
5899;DHT22;2975;50.956;6.962;2023-03-14T14:23:15;8.20;99.90
5899;DHT22;2975;50.956;6.962;2023-03-14T14:25:43;8.10;99.90
5899;DHT22;2975;50.956;6.962;2023-03-14T14:31:18;8.00;99.90
5899;DHT22;2975;50.956;6.962;2023-03-14T14:36:16;8.00;99.90
5899;DHT22;2975;50.956;6.962;2023-03-14T14:38:49;7.90;99.90
5899;DHT22;2975;50.956;6.962;2023-03-14T14:41:15;8.00;99.90
5899;DHT22;2975;50.956;6.962;2023-03-14T14:43:41;8.10;99.90
5899;DHT22;2975;50.956;6.962;2023-03-14T14:46:08;8.00;99.90
5899;DHT22;2975;50.956;6.962;2023-03-14T14:48:38;8.10;99.90
5899;DHT22;2975;50.956;6.962;2023-03-14T14:51:06;8.20;99.90
5899;DHT22;2975;50.956;6.962;2023-03-14T14:53:40;8.20;99.90
5899;DHT22;2975;50.956;6.962;2023-03-14T14:56:19;8.20;99.90
5899;DHT22;2975;50.956;6.962;2023-03-14T14:58:48;8.20;99.90
5899;DHT22;2975;50.956;6.962;2023-03-14T15:01:22;8.40;99.90
5899;DHT22;2975;50.956;6.962;2023-03-14T15:03:51;8.50;99.90
5899;DHT22;2975;50.956;6.962;2023-03-14T15:06:17;8.50;99.90
5899;DHT22;2975;50.956;6.962;2023-03-14T15:08:45;8.70;99.90
5899;DHT22;2975;50.956;6.962;2023-03-14T15:11:21;8.60;99.90
5899;DHT22;2975;50.956;6.962;2023-03-14T15:13:48;8.70;99.90
5899;DHT22;2975;50.956;6.962;2023-03-14T15:16:17;8.70;99.90
5899;DHT22;2975;50.956;6.962;2023-03-14T15:18:43;8.60;99.90
5899;DHT22;2975;50.956;6.962;2023-03-14T15:21:10;8.40;99.90
5899;DHT22;2975;50.956;6.962;2023-03-14T15:23:36;8.40;99.90
5899;DHT22;2975;50.956;6.962;2023-03-14T15:26:01;8.50;99.90
5899;DHT22;2975;50.956;6.962;2023-03-14T15:28:29;8.50;99.90
5899;DHT22;2975;50.956;6.962;2023-03-14T15:30:57;8.50;99.90
5899;DHT22;2975;50.956;6.962;2023-03-14T15:33:24;8.50;99.90
5899;DHT22;2975;50.956;6.962;2023-03-14T15:35:50;8.40;99.90
5899;DHT22;2975;50.956;6.962;2023-03-14T15:38:19;8.50;99.90
5899;DHT22;2975;50.956;6.962;2023-03-14T15:40:49;8.50;99.90
5899;DHT22;2975;50.956;6.962;2023-03-14T15:43:14;8.60;99.90
5899;DHT22;2975;50.956;6.962;2023-03-14T15:45:40;8.70;99.90
5899;DHT22;2975;50.956;6.962;2023-03-14T15:48:08;8.70;99.90
5899;DHT22;2975;50.956;6.962;2023-03-14T15:50:37;8.70;99.90
5899;DHT22;2975;50.956;6.962;2023-03-14T15:53:02;8.70;99.90
5899;DHT22;2975;50.956;6.962;2023-03-14T15:55:28;8.70;99.90
5899;DHT22;2975;50.956;6.962;2023-03-14T15:57:53;8.70;99.90
5899;DHT22;2975;50.956;6.962;2023-03-14T16:00:20;8.60;99.90
5899;DHT22;2975;50.956;6.962;2023-03-14T16:02:47;8.70;99.90
5899;DHT22;2975;50.956;6.962;2023-03-14T16:05:13;8.70;99.90
5899;DHT22;2975;50.956;6.962;2023-03-14T16:07:40;8.80;99.90
5899;DHT22;2975;50.956;6.962;2023-03-14T16:10:07;8.80;99.90
5899;DHT22;2975;50.956;6.962;2023-03-14T16:12:35;8.70;99.90
5899;DHT22;2975;50.956;6.962;2023-03-14T16:15:00;8.60;99.90
5899;DHT22;2975;50.956;6.962;2023-03-14T16:17:27;8.60;99.90
5899;DHT22;2975;50.956;6.962;2023-03-14T16:19:52;8.50;99.90
5899;DHT22;2975;50.956;6.962;2023-03-14T16:22:18;8.40;99.90
5899;DHT22;2975;50.956;6.962;2023-03-14T16:24:44;8.40;99.90
5899;DHT22;2975;50.956;6.962;2023-03-14T16:27:09;8.40;99.90
5899;DHT22;2975;50.956;6.962;2023-03-14T16:29:35;8.30;99.90
5899;DHT22;2975;50.956;6.962;2023-03-14T16:32:01;8.30;99.90
5899;DHT22;2975;50.956;6.962;2023-03-14T16:34:27;8.20;99.90
5899;DHT22;2975;50.956;6.962;2023-03-14T16:36:52;8.20;99.90
5899;DHT22;2975;50.956;6.962;2023-03-14T16:39:18;8.10;99.90
5899;DHT22;2975;50.956;6.962;2023-03-14T16:41:44;8.10;99.90
5899;DHT22;2975;50.956;6.962;2023-03-14T16:44:10;8.00;97.00
5899;DHT22;2975;50.956;6.962;2023-03-14T16:46:36;7.90;94.10
5899;DHT22;2975;50.956;6.962;2023-03-14T16:49:03;7.80;93.40
5899;DHT22;2975;50.956;6.962;2023-03-14T16:51:28;7.80;91.90
5899;DHT22;2975;50.956;6.962;2023-03-14T16:53:54;7.80;92.00
5899;DHT22;2975;50.956;6.962;2023-03-14T16:56:20;7.80;92.40
5899;DHT22;2975;50.956;6.962;2023-03-14T16:58:47;7.70;90.90
5899;DHT22;2975;50.956;6.962;2023-03-14T17:01:14;7.70;90.90
5899;DHT22;2975;50.956;6.962;2023-03-14T17:03:47;7.70;89.60
5899;DHT22;2975;50.956;6.962;2023-03-14T17:06:20;7.60;90.00
5899;DHT22;2975;50.956;6.962;2023-03-14T17:08:48;7.60;89.70
5899;DHT22;2975;50.956;6.962;2023-03-14T17:11:13;7.60;88.80
5899;DHT22;2975;50.956;6.962;2023-03-14T17:13:39;7.50;89.80
5899;DHT22;2975;50.956;6.962;2023-03-14T17:16:05;7.50;89.20
5899;DHT22;2975;50.956;6.962;2023-03-14T17:18:31;7.40;90.00
5899;DHT22;2975;50.956;6.962;2023-03-14T17:20:57;7.40;88.90